createdAt,value
2022-10-12T00:02:42.199Z,36.90
2022-10-12T00:06:44.930Z,34.85
2022-10-12T00:10:47.610Z,37.00
2022-10-12T00:14:51.819Z,39.95
2022-10-12T00:18:56.248Z,32.58
2022-10-12T00:22:59.048Z,38.60
2022-10-12T00:27:01.976Z,36.20
2022-10-12T00:31:10.318Z,41.17
2022-10-12T00:35:13.054Z,33.75
2022-10-12T00:39:15.791Z,39.05
2022-10-12T00:43:27.231Z,30.88
2022-10-12T00:47:34.561Z,32.72
2022-10-12T00:51:40.771Z,39.53
2022-10-12T00:55:48.410Z,40.38
2022-10-12T00:59:55.530Z,39.63
2022-10-12T01:03:59.656Z,39.33
2022-10-12T01:08:02.834Z,39.35
2022-10-12T01:12:07.899Z,46.13
2022-10-12T01:16:18.142Z,37.78
2022-10-12T01:20:35.409Z,38.33
2022-10-12T01:24:52.951Z,44.42
2022-10-12T01:29:05.587Z,40.72
2022-10-12T01:33:25.088Z,38.90
2022-10-12T01:37:36.677Z,40.63
2022-10-12T01:41:45.269Z,37.55
2022-10-12T01:45:47.987Z,50.17
2022-10-12T01:49:52.530Z,42.50
2022-10-12T01:54:06.618Z,43.38
2022-10-12T01:58:26.338Z,48.13
2022-10-12T02:02:33.928Z,42.17
2022-10-12T02:06:41.714Z,39.65
2022-10-12T02:10:48.853Z,39.30
2022-10-12T02:14:55.770Z,40.03
2022-10-12T02:19:00.880Z,36.28
2022-10-12T02:23:05.007Z,34.55
2022-10-12T02:27:10.047Z,39.97
2022-10-12T02:31:21.600Z,36.50
2022-10-12T02:35:32.750Z,41.63
2022-10-12T02:39:43.262Z,38.67
2022-10-12T02:43:49.922Z,36.00
2022-10-12T02:47:56.011Z,46.35
2022-10-12T02:51:59.391Z,35.80
2022-10-12T02:56:06.448Z,39.17
2022-10-12T03:00:10.906Z,36.95
2022-10-12T03:04:13.714Z,37.47
2022-10-12T03:08:16.466Z,42.35
2022-10-12T03:12:20.567Z,46.20
2022-10-12T03:16:24.130Z,34.50
2022-10-12T03:20:26.830Z,42.35
2022-10-12T03:24:29.549Z,43.08
2022-10-12T03:28:34.142Z,42.42
2022-10-12T03:32:36.910Z,45.47
2022-10-12T03:36:39.598Z,65.65
2022-10-12T03:40:42.618Z,59.47
2022-10-12T03:44:46.716Z,60.25
2022-10-12T03:48:49.483Z,65.32
2022-10-12T03:52:52.171Z,81.10
2022-10-12T03:56:54.876Z,76.38
2022-10-12T04:00:59.019Z,90.75
2022-10-12T04:05:01.979Z,83.53
2022-10-12T04:09:05.144Z,92.28
2022-10-12T04:13:07.857Z,84.97
2022-10-12T04:17:13.255Z,98.40
2022-10-12T04:21:17.719Z,102.43
2022-10-12T04:25:20.420Z,96.72
2022-10-12T04:29:23.163Z,93.10
2022-10-12T04:33:27.497Z,99.88
2022-10-12T04:37:30.334Z,97.07
2022-10-12T04:41:33.220Z,99.15
2022-10-12T04:45:35.955Z,101.82
2022-10-12T04:49:40.085Z,91.95
2022-10-12T04:53:42.785Z,112.28
2022-10-12T04:57:45.508Z,107.40
2022-10-12T05:01:48.260Z,84.72
2022-10-12T05:05:52.632Z,106.70
2022-10-12T05:09:55.322Z,107.35
2022-10-12T05:13:58.088Z,115.80
2022-10-12T05:18:00.787Z,106.22
2022-10-12T05:22:04.922Z,104.15
2022-10-12T05:26:07.727Z,91.20
2022-10-12T05:30:11.425Z,94.82
2022-10-12T05:34:14.144Z,107.20
2022-10-12T05:38:19.022Z,98.65
2022-10-12T05:42:21.747Z,97.25
2022-10-12T05:46:24.548Z,91.80
2022-10-12T05:50:27.446Z,84.22
2022-10-12T05:54:31.601Z,80.95
2022-10-12T05:58:34.433Z,93.97
2022-10-12T06:02:37.523Z,97.65
2022-10-12T06:06:40.393Z,107.63
2022-10-12T06:10:48.054Z,99.53
2022-10-12T06:14:50.785Z,94.03
2022-10-12T06:18:54.102Z,99.82
2022-10-12T06:22:56.757Z,94.97
2022-10-12T06:27:00.798Z,101.43
2022-10-12T06:31:03.538Z,105.78
2022-10-12T06:35:07.230Z,102.32
2022-10-12T06:39:10.497Z,77.53
2022-10-12T06:43:14.942Z,89.13
2022-10-12T06:47:17.649Z,80.35
2022-10-12T06:51:20.351Z,75.53
2022-10-12T06:55:23.101Z,73.35
2022-10-12T06:59:27.256Z,70.50
2022-10-12T07:03:29.936Z,72.28
2022-10-12T07:07:33.385Z,73.30
2022-10-12T07:11:36.098Z,62.50
2022-10-12T07:15:40.127Z,58.97
2022-10-12T07:19:42.822Z,66.88
2022-10-12T07:23:46.302Z,71.43
2022-10-12T07:27:49.475Z,64.05
2022-10-12T07:31:53.518Z,75.93
2022-10-12T07:36:13.410Z,81.03
2022-10-12T07:40:17.394Z,82.55
2022-10-12T07:44:21.186Z,72.93
2022-10-12T07:48:25.302Z,76.97
2022-10-12T07:52:28.349Z,60.45
2022-10-12T07:56:31.059Z,62.47
2022-10-12T08:00:34.016Z,71.80
2022-10-12T08:04:38.070Z,63.72
2022-10-12T08:08:41.091Z,59.85
2022-10-12T08:12:46.386Z,74.35
2022-10-12T08:16:51.214Z,80.75
2022-10-12T08:20:55.362Z,69.18
2022-10-12T08:24:58.059Z,68.82
2022-10-12T08:29:02.237Z,66.65
2022-10-12T08:33:10.118Z,60.42
2022-10-12T08:37:14.505Z,56.30
2022-10-12T08:41:29.753Z,56.72
2022-10-12T08:45:39.199Z,52.85
2022-10-12T08:49:48.781Z,48.60
2022-10-12T08:53:58.437Z,54.10
2022-10-12T08:58:01.292Z,51.53
2022-10-12T09:02:31.758Z,51.55
2022-10-12T09:06:38.432Z,56.28
2022-10-12T09:10:47.926Z,46.97
2022-10-12T09:14:52.578Z,54.55
2022-10-12T09:18:59.843Z,42.15
2022-10-12T09:23:07.559Z,38.92
2022-10-12T09:27:16.418Z,41.92
2022-10-12T09:31:34.899Z,48.88
2022-10-12T09:35:38.229Z,36.50
2022-10-12T09:39:41.168Z,41.85
2022-10-12T09:43:45.959Z,49.85
2022-10-12T09:48:16.873Z,32.13
2022-10-12T09:52:22.707Z,32.55
2022-10-12T09:56:29.647Z,38.30
2022-10-12T10:00:35.771Z,33.88
2022-10-12T10:04:39.341Z,33.15
2022-10-12T10:08:44.816Z,31.90
2022-10-12T10:12:52.672Z,28.57
2022-10-12T10:16:59.572Z,28.15
2022-10-12T10:21:04.812Z,27.23
2022-10-12T10:25:20.009Z,26.85
2022-10-12T10:29:34.121Z,26.52
2022-10-12T10:33:38.291Z,28.63
2022-10-12T10:37:45.574Z,29.40
2022-10-12T10:41:49.091Z,31.40
2022-10-12T10:45:54.128Z,34.78
2022-10-12T10:49:59.622Z,27.70
2022-10-12T10:54:14.790Z,28.20
2022-10-12T10:58:25.481Z,35.33
2022-10-12T11:02:34.634Z,26.45
2022-10-12T11:06:41.824Z,25.70
2022-10-12T11:10:49.652Z,30.67
2022-10-12T11:14:56.810Z,24.05
2022-10-12T11:19:03.209Z,29.27
2022-10-12T11:27:23.671Z,24.05
2022-10-12T11:31:31.166Z,26.08
2022-10-12T11:35:36.826Z,24.90
2022-10-12T11:39:45.655Z,23.53
2022-10-12T11:43:53.658Z,24.60
2022-10-12T11:48:01.006Z,27.92
2022-10-12T11:52:09.778Z,29.13
2022-10-12T11:56:21.522Z,24.23
2022-10-12T12:00:32.589Z,25.67
2022-10-12T12:04:44.505Z,23.30
2022-10-12T12:09:06.884Z,21.10
2022-10-12T12:13:22.692Z,27.17
2022-10-12T12:17:31.792Z,27.10
2022-10-12T12:22:09.162Z,30.65
2022-10-12T12:26:17.741Z,24.33
2022-10-12T12:30:41.309Z,23.92
2022-10-12T12:34:59.978Z,27.83
2022-10-12T12:39:04.275Z,23.83
2022-10-12T12:43:21.460Z,26.73
2022-10-12T12:47:46.727Z,27.90
2022-10-12T12:51:54.935Z,24.73
2022-10-12T12:56:04.945Z,28.55
2022-10-12T13:00:16.940Z,28.13
2022-10-12T13:04:56.002Z,30.73
2022-10-12T13:09:15.413Z,27.05
2022-10-12T13:13:36.647Z,23.25
2022-10-12T13:17:55.238Z,21.42
2022-10-12T13:22:03.461Z,31.08
2022-10-12T13:26:08.486Z,25.38
2022-10-12T13:30:29.300Z,27.83
2022-10-12T13:34:39.351Z,28.80
2022-10-12T13:38:43.410Z,31.17
2022-10-12T13:42:46.162Z,22.05
2022-10-12T13:46:51.347Z,25.55
2022-10-12T13:50:55.191Z,21.13
2022-10-12T13:54:59.418Z,25.25
2022-10-12T13:59:07.013Z,27.55
2022-10-12T14:03:13.499Z,24.23
2022-10-12T14:07:21.650Z,22.92
2022-10-12T14:11:26.347Z,25.08
2022-10-12T14:15:34.310Z,18.63
2022-10-12T14:19:44.947Z,21.42
2022-10-12T14:23:49.182Z,24.95
2022-10-12T14:27:57.367Z,19.60
2022-10-12T14:32:01.442Z,24.42
2022-10-12T14:36:15.050Z,24.95
2022-10-12T14:40:35.525Z,26.95
2022-10-12T14:44:44.262Z,25.80
2022-10-12T14:48:46.929Z,18.08
2022-10-12T14:52:51.305Z,18.90
2022-10-12T14:56:53.983Z,34.75
2022-10-12T15:00:58.213Z,22.20
2022-10-12T15:05:01.232Z,27.83
2022-10-12T15:09:04.077Z,19.90
2022-10-12T15:13:06.785Z,23.73
2022-10-12T15:17:13.373Z,17.67
2022-10-12T15:21:16.453Z,28.60
2022-10-12T15:25:23.168Z,27.35
2022-10-12T15:29:25.915Z,26.33
2022-10-12T15:33:30.387Z,20.35
2022-10-12T15:37:33.077Z,24.88
2022-10-12T15:41:35.802Z,23.67
2022-10-12T15:45:40.753Z,26.00
2022-10-12T15:49:44.806Z,26.35
2022-10-12T15:53:47.802Z,26.83
2022-10-12T15:57:51.490Z,26.15
2022-10-12T16:01:54.305Z,25.45
2022-10-12T16:05:58.695Z,27.95
2022-10-12T16:10:01.394Z,27.13
2022-10-12T16:14:04.175Z,32.03
2022-10-12T16:18:07.257Z,31.75
2022-10-12T16:22:11.756Z,25.50
2022-10-12T16:26:16.080Z,30.25
2022-10-12T16:30:19.273Z,30.70
2022-10-12T16:34:21.952Z,35.10
2022-10-12T16:38:26.027Z,34.17
2022-10-12T16:42:29.232Z,37.33
2022-10-12T16:46:31.922Z,40.78
2022-10-12T16:50:39.804Z,36.17
2022-10-12T16:54:43.867Z,39.22
2022-10-12T16:58:46.639Z,44.88
2022-10-12T17:02:51.215Z,40.28
2022-10-12T17:06:55.667Z,37.92
2022-10-12T17:10:59.898Z,43.97
2022-10-12T17:15:02.666Z,37.25
2022-10-12T17:19:05.397Z,35.90
2022-10-12T17:23:08.190Z,45.20
2022-10-12T17:27:14.513Z,46.00
2022-10-12T17:35:20.127Z,41.08
2022-10-12T17:39:24.005Z,36.97
2022-10-12T17:43:28.052Z,36.95
2022-10-12T17:47:30.833Z,41.63
2022-10-12T17:51:34.242Z,46.00
2022-10-12T17:55:48.126Z,34.85
2022-10-12T17:59:53.042Z,40.75
2022-10-12T18:03:56.189Z,35.65
2022-10-12T18:07:59.191Z,42.28
2022-10-12T18:12:01.942Z,34.45
2022-10-12T18:16:10.284Z,46.42
2022-10-12T18:20:13.223Z,45.05
2022-10-12T18:24:17.421Z,41.67
2022-10-12T18:28:20.268Z,39.60
2022-10-12T18:32:25.566Z,46.63
2022-10-12T18:36:28.668Z,41.00
2022-10-12T18:40:31.427Z,44.63
2022-10-12T18:44:34.147Z,40.78
2022-10-12T18:48:38.904Z,39.42
2022-10-12T18:52:41.716Z,42.30
2022-10-12T18:56:45.340Z,33.20
2022-10-12T19:00:48.111Z,33.25
2022-10-12T19:04:52.656Z,41.22
2022-10-12T19:08:55.775Z,40.95
2022-10-12T19:12:59.824Z,35.00
2022-10-12T19:17:02.563Z,50.97
2022-10-12T19:21:09.067Z,38.83
2022-10-12T19:29:15.196Z,61.17
2022-10-12T19:33:17.940Z,37.00
2022-10-12T19:37:22.011Z,41.92
2022-10-12T19:41:25.072Z,42.70
2022-10-12T19:45:27.781Z,34.13
2022-10-12T19:49:35.757Z,35.38
2022-10-12T19:53:41.891Z,42.47
2022-10-12T19:57:44.566Z,50.10
2022-10-12T20:01:48.143Z,51.53
2022-10-12T20:05:51.020Z,37.67
2022-10-12T20:09:55.111Z,41.78
2022-10-12T20:13:58.269Z,40.88
2022-10-12T20:18:00.966Z,38.45
2022-10-12T20:22:03.695Z,43.00
2022-10-12T20:26:09.800Z,36.35
2022-10-12T20:30:13.142Z,34.15
2022-10-12T20:34:15.858Z,30.88
2022-10-12T20:38:19.314Z,35.25
2022-10-12T20:42:23.784Z,33.42
2022-10-12T20:46:27.583Z,32.78
2022-10-12T20:50:30.414Z,30.67
2022-10-12T20:54:33.152Z,25.63
2022-10-12T20:58:37.291Z,32.35
2022-10-12T21:02:40.330Z,27.80
2022-10-12T21:06:43.098Z,28.67
2022-10-12T21:10:47.580Z,26.92
2022-10-12T21:14:51.699Z,38.47
2022-10-12T21:18:55.330Z,28.38
2022-10-12T21:22:58.018Z,24.45
2022-10-12T21:27:00.747Z,25.25
2022-10-12T21:31:04.938Z,25.58
2022-10-12T21:35:08.082Z,25.65
2022-10-12T21:39:13.055Z,23.13
2022-10-12T21:43:15.792Z,22.05
2022-10-12T21:47:19.863Z,26.60
2022-10-12T21:51:24.137Z,32.97
2022-10-12T21:55:26.966Z,23.27
2022-10-12T21:59:29.642Z,27.17
2022-10-12T22:03:33.871Z,28.33
2022-10-12T22:07:36.690Z,27.85
2022-10-12T22:11:39.842Z,30.67
2022-10-12T22:15:46.181Z,28.13
2022-10-12T22:19:50.465Z,27.90
2022-10-12T22:23:53.266Z,25.98
2022-10-12T22:27:56.156Z,25.35
2022-10-12T22:31:58.907Z,33.70
2022-10-12T22:36:03.332Z,26.40
2022-10-12T22:40:07.386Z,23.50
2022-10-12T22:44:10.117Z,25.65
2022-10-12T22:48:12.840Z,20.13
2022-10-12T22:52:17.260Z,22.40
2022-10-12T22:56:20.331Z,25.30
2022-10-12T23:00:23.122Z,29.35
2022-10-12T23:04:25.837Z,25.63
2022-10-12T23:08:30.475Z,25.55
2022-10-12T23:12:37.424Z,20.98
2022-10-12T23:16:40.181Z,18.73
2022-10-12T23:20:43.071Z,19.10
2022-10-12T23:24:47.327Z,19.88
2022-10-12T23:28:50.774Z,19.80
2022-10-12T23:32:53.534Z,26.92
2022-10-12T23:36:56.256Z,20.88
2022-10-12T23:41:00.303Z,25.85
2022-10-12T23:45:03.872Z,18.40
2022-10-12T23:49:06.647Z,22.98
2022-10-12T23:53:11.003Z,22.42
2022-10-12T23:57:34.655Z,21.33
